Date,TemperatureHighF,TemperatureAvgF,TemperatureLowF,DewpointHighF,DewpointAvgF,DewpointLowF,HumidityHigh,HumidityAvg,HumidityLow,PressureMaxIn,PressureMinIn,WindSpeedMaxMPH,WindSpeedAvgMPH,GustSpeedMaxMPH,PrecipitationSumIn
2013-9-1,84,74,66,81,73,57,100,99,70,29.77,29.64,12,2,13,0.01
2013-9-2,67,64,62,67,64,58,100,100,84,29.78,29.56,16,2,16,0.00
2013-9-3,77,68,65,77,67,54,100,99,67,29.59,29.52,10,1,11,0.02
2013-9-4,80,69,61,74,66,61,100,93,57,29.70,29.53,14,2,14,0.00
2013-9-5,66,58,48,65,56,45,100,93,47,29.89,29.65,19,6,19,0.00
2013-9-6,70,54,40,61,48,39,100,83,42,30.00,29.81,13,2,13,0.00
2013-9-7,74,60,49,70,58,49,100,96,67,29.81,29.58,13,1,13,0.01
2013-9-8,62,58,48,61,57,48,100,98,73,29.80,29.48,25,4,25,0.01
2013-9-9,66,52,40,61,50,40,100,92,53,29.98,29.80,13,2,15,0.00
2013-9-10,66,60,52,66,59,52,100,100,100,29.92,29.86,16,2,16,0.00
2013-9-11,79,67,60,79,67,59,100,100,100,29.86,29.71,10,1,10,0.01
2013-9-12,77,67,64,77,67,63,100,100,100,29.83,29.47,13,2,13,0.00
2013-9-13,67,64,60,67,64,59,100,100,86,29.48,29.40,25,4,26,0.01
2013-9-14,71,62,54,71,62,53,100,100,100,29.79,29.46,13,3,13,0.00
2013-9-15,70,57,48,69,56,47,100,98,74,29.92,29.78,11,1,13,0.00
2013-9-16,64,55,46,63,55,45,100,100,95,30.00,29.74,26,5,26,0.01
2013-9-17,66,50,40,57,47,39,100,92,55,30.15,30.00,20,6,21,0.00
2013-9-18,72,54,40,66,51,36,100,91,51,30.05,29.86,10,1,10,0.00
2013-9-19,78,58,43,69,52,-40,100,88,1,29.91,29.81,11,2,12,0.00
2013-9-20,78,60,47,73,58,35,100,93,60,29.92,29.79,12,2,12,0.01
2013-9-21,68,59,51,67,59,50,100,100,100,29.84,29.61,17,2,17,0.00
2013-9-22,69,63,55,68,63,55,100,100,100,29.61,29.41,17,3,18,0.00
2013-9-23,56,52,47,56,52,47,100,100,93,29.66,29.49,25,8,25,0.01
2013-9-24,53,50,47,53,50,47,100,100,100,29.66,29.58,22,5,22,0.00
2013-9-25,59,53,48,59,53,49,100,100,100,29.73,29.59,26,8,26,0.01
2013-9-26,62,55,45,61,55,45,100,100,100,29.90,29.72,25,9,25,0.01
2013-9-27,71,58,52,67,57,52,100,96,71,30.02,29.90,23,7,23,0.00
2013-9-28,73,58,48,68,56,47,100,94,64,30.15,30.02,13,4,13,0.00
2013-9-29,70,53,42,67,50,42,100,92,56,30.04,29.90,9,1,10,0.00
2013-9-30,69,53,43,61,50,35,100,92,45,29.93,29.74,12,2,12,0.00